Ana Sayfa
METAR-TAF:

METAR-TAF

Havaalanları :

Somerset Airport

Somerville, New Jersey, Amerika Birleşik Devletleri

Enlem: 40-37-26N, Boylam: 074-40-10W, yükseklik: 32 m

Güncel hava durumu gözlemi

Rapor saat 08:27 UTC de 10 dakika önce yapıldı.
Sakin rüzgar
Sıcaklık 18°C
Nem 94%
Basınç 1012 hPa
Görüş mesafesi: 3.2 km
300 ft yükseklikte parçalı bulutlu
Pus

METAR: KSMQ 240827Z AUTO 00000KT 2SM BR SCT003 18/17 A2989 RMK AO2 T01780172

Saat: 04:37 (08:37 UTC)


TAF: eksik

4.000'den fazla havaalanı için hava durumu gözlemleri ve tahminleri (METAR ve TAF raporları).

Kullanılabilir istasyonlar harita üzerinde sarı ve kırmızı noktalarla gösterilir.

İstasyonun adını görmek için fareyi noktanın üzerinde gezdirin.

Sonrasında hava gözlem ve tahminlerini görmek için tıklayın.

Haritayı değiştirmek için: yaklaştırmak için siyah artı işaretli yeşil düğmeye ve uzaklaştırmak için de eksi işaretli düğmeye hızla tıklayın; bitişik haritalar için yeşil okları kullanın.


METAR-TAF: